Time;durP1;ratioP1;P1;durP2;ratioP2;P2;SDS_P1;SDS_P2;PMS_P1;PMS_P2;Temp;Humidity;BMP_temperature;BMP_pressure;BME280_temperature;BME280_humidity;BME280_pressure;Samples;Min_cycle;Max_cycle;Signal;HPM_P1;HPM_P2
2022/07/29 00:00:23;;;;;;;1.17;0.90;;;25.40;43.10;;;;;;5002638;28;20547;-49
2022/07/29 00:02:51;;;;;;;2.30;1.20;;;25.40;43.20;;;;;;5019115;28;21019;-47
2022/07/29 00:05:19;;;;;;;1.23;1.13;;;25.40;43.20;;;;;;5008657;28;20500;-49
2022/07/29 00:07:47;;;;;;;1.23;0.90;;;25.40;43.20;;;;;;5010038;28;20512;-50
2022/07/29 00:10:15;;;;;;;3.53;1.20;;;25.40;43.20;;;;;;5012957;28;20472;-50
2022/07/29 00:12:45;;;;;;;1.13;1.03;;;25.40;43.30;;;;;;5021996;28;21142;-46
2022/07/29 00:15:13;;;;;;;2.13;1.23;;;25.40;43.30;;;;;;5016670;28;20473;-48
2022/07/29 00:17:41;;;;;;;0.87;0.80;;;25.40;43.30;;;;;;5022305;28;20491;-47
2022/07/29 00:20:10;;;;;;;2.63;1.43;;;25.40;43.30;;;;;;5013990;28;20479;-49
2022/07/29 00:22:39;;;;;;;1.30;0.90;;;25.40;43.30;;;;;;5011011;28;20471;-49
2022/07/29 00:25:10;;;;;;;1.83;1.07;;;25.40;43.30;;;;;;5011962;28;20995;-48
2022/07/29 00:27:38;;;;;;;1.80;1.07;;;25.40;43.40;;;;;;5021778;28;20991;-49
2022/07/29 00:30:08;;;;;;;1.77;1.10;;;25.40;43.40;;;;;;5019524;28;20493;-48
2022/07/29 00:32:36;;;;;;;2.13;1.27;;;25.40;43.40;;;;;;5020886;28;20847;-48
2022/07/29 00:37:51;;;;;;;1.70;1.60;;;25.40;43.50;;;;;;5018033;28;20536;-47
2022/07/29 00:40:19;;;;;;;1.00;0.90;;;25.40;43.40;;;;;;5010217;28;20484;-48
2022/07/29 00:42:55;;;;;;;2.10;1.20;;;25.40;43.50;;;;;;5015759;28;20972;-49
2022/07/29 00:45:24;;;;;;;1.10;0.97;;;25.40;43.40;;;;;;5006203;28;20551;-48
2022/07/29 00:47:54;;;;;;;2.50;1.10;;;25.40;43.50;;;;;;5021376;28;20924;-49
2022/07/29 00:50:23;;;;;;;1.70;0.97;;;25.40;43.60;;;;;;4999077;28;20585;-49
2022/07/29 00:52:52;;;;;;;2.50;1.20;;;25.40;43.50;;;;;;5006576;28;20540;-50
2022/07/29 00:55:20;;;;;;;1.83;1.17;;;25.40;43.50;;;;;;5017441;28;21044;-47
2022/07/29 00:57:49;;;;;;;1.40;1.10;;;25.40;43.50;;;;;;5010905;28;20867;-49
2022/07/29 01:00:19;;;;;;;3.00;1.07;;;25.40;43.50;;;;;;5018537;28;20637;-48
2022/07/29 01:02:50;;;;;;;1.83;1.40;;;25.40;43.50;;;;;;5015776;28;20830;-47
2022/07/29 01:05:20;;;;;;;2.03;1.20;;;25.40;43.60;;;;;;5017144;28;20469;-47
2022/07/29 01:07:50;;;;;;;1.17;0.90;;;25.40;43.50;;;;;;5016123;28;20470;-49
2022/07/29 01:10:19;;;;;;;3.00;1.47;;;25.40;43.60;;;;;;5021519;28;20558;-48
2022/07/29 01:12:49;;;;;;;1.90;1.50;;;25.40;43.50;;;;;;5015624;28;20801;-48
2022/07/29 01:15:18;;;;;;;0.93;0.83;;;25.40;43.50;;;;;;5014842;28;20544;-46
2022/07/29 01:17:52;;;;;;;1.40;1.20;;;25.40;43.60;;;;;;5024891;28;20548;-48
2022/07/29 01:20:27;;;;;;;1.33;1.23;;;25.40;43.60;;;;;;5015793;28;20460;-46
2022/07/29 01:23:17;;;;;;;2.30;1.27;;;25.40;43.70;;;;;;5008855;28;20444;-48
2022/07/29 01:26:04;;;;;;;1.83;0.93;;;25.40;43.60;;;;;;5008891;28;20440;-49
2022/07/29 01:28:52;;;;;;;1.27;1.17;;;25.40;43.60;;;;;;5012455;28;20471;-47
2022/07/29 01:31:34;;;;;;;0.87;0.83;;;25.40;43.60;;;;;;5020353;28;20441;-49
2022/07/29 01:34:11;;;;;;;1.10;1.00;;;25.40;43.70;;;;;;5012574;28;20471;-47
2022/07/29 01:36:46;;;;;;;1.60;1.10;;;25.40;43.70;;;;;;5007694;28;20450;-47
2022/07/29 01:39:20;;;;;;;1.27;1.17;;;25.40;43.70;;;;;;5010924;28;20472;-48
2022/07/29 01:41:56;;;;;;;1.30;1.20;;;25.40;43.80;;;;;;5018823;28;20440;-47
2022/07/29 01:44:32;;;;;;;1.10;1.00;;;25.40;43.90;;;;;;5006079;28;20563;-47
2022/07/29 01:47:06;;;;;;;1.30;1.20;;;25.30;43.80;;;;;;5010802;28;20554;-47
2022/07/29 01:49:39;;;;;;;1.17;1.07;;;25.40;43.90;;;;;;5004142;28;21067;-49
2022/07/29 01:52:13;;;;;;;1.70;1.40;;;25.40;43.80;;;;;;5001274;28;20490;-48
2022/07/29 01:54:52;;;;;;;1.60;1.20;;;25.40;43.90;;;;;;5016963;28;20479;-48
2022/07/29 01:57:25;;;;;;;1.40;1.20;;;25.40;44.00;;;;;;5014276;28;20559;-48
2022/07/29 01:59:56;;;;;;;1.17;1.07;;;25.40;44.00;;;;;;5014864;28;20473;-49
2022/07/29 02:02:26;;;;;;;1.10;1.00;;;25.30;43.80;;;;;;5002298;28;20440;-49
2022/07/29 02:04:56;;;;;;;1.17;1.07;;;25.30;43.80;;;;;;5007428;28;20548;-48
2022/07/29 02:07:26;;;;;;;1.03;0.93;;;25.40;44.00;;;;;;5015115;28;20476;-48
2022/07/29 02:09:55;;;;;;;1.20;1.10;;;25.40;43.90;;;;;;5018064;28;20488;-49
2022/07/29 02:12:26;;;;;;;1.10;1.00;;;25.30;44.00;;;;;;5011809;28;20531;-48
2022/07/29 02:14:58;;;;;;;1.47;1.10;;;25.30;44.00;;;;;;5007202;28;21050;-53
2022/07/29 02:17:31;;;;;;;1.40;1.20;;;25.30;43.90;;;;;;5012237;28;20545;-47
2022/07/29 02:20:02;;;;;;;1.97;1.20;;;25.30;44.00;;;;;;5015066;28;20995;-51
2022/07/29 02:22:34;;;;;;;2.07;1.23;;;25.30;44.00;;;;;;5006618;28;20529;-47
2022/07/29 02:25:02;;;;;;;3.47;1.50;;;25.30;44.00;;;;;;5010712;28;20473;-49
2022/07/29 02:27:32;;;;;;;2.37;1.20;;;25.30;43.90;;;;;;5009300;28;20497;-48
2022/07/29 02:30:03;;;;;;;2.43;1.20;;;25.30;43.90;;;;;;5016227;28;20551;-50
2022/07/29 02:32:35;;;;;;;2.90;1.33;;;25.30;43.90;;;;;;5013933;28;20532;-47
2022/07/29 02:35:03;;;;;;;1.17;1.07;;;25.30;43.90;;;;;;5018139;28;20503;-47
2022/07/29 02:37:32;;;;;;;1.33;1.17;;;25.30;43.90;;;;;;5020745;28;20543;-47
2022/07/29 02:40:02;;;;;;;2.53;1.40;;;25.30;43.80;;;;;;5018996;28;20465;-48
2022/07/29 02:42:33;;;;;;;1.30;1.10;;;25.30;43.80;;;;;;5020251;28;20527;-49
2022/07/29 02:45:02;;;;;;;1.60;1.10;;;25.30;44.00;;;;;;5011068;28;20983;-48
2022/07/29 02:47:39;;;;;;;1.40;0.93;;;25.30;44.00;;;;;;5023642;28;20547;-51
2022/07/29 02:50:13;;;;;;;2.07;1.27;;;25.30;44.00;;;;;;5018324;28;20855;-47
2022/07/29 02:52:46;;;;;;;1.57;1.30;;;25.20;44.00;;;;;;5012416;28;21155;-48
2022/07/29 02:55:20;;;;;;;2.20;1.13;;;25.30;44.00;;;;;;5013193;28;20590;-47
2022/07/29 02:57:52;;;;;;;1.43;1.33;;;25.20;43.90;;;;;;5023154;28;20529;-47
2022/07/29 03:00:27;;;;;;;1.30;0.80;;;25.20;44.00;;;;;;5003776;28;20475;-46
2022/07/29 03:03:00;;;;;;;2.90;1.27;;;25.30;44.00;;;;;;5012055;28;20443;-46
2022/07/29 03:05:29;;;;;;;1.73;1.27;;;25.30;44.00;;;;;;5022460;28;20576;-46
2022/07/29 03:08:01;;;;;;;1.23;1.13;;;25.30;44.00;;;;;;5016550;28;20462;-48
2022/07/29 03:10:29;;;;;;;1.83;1.10;;;25.20;44.00;;;;;;5027424;28;20440;-47
2022/07/29 03:12:58;;;;;;;1.50;1.13;;;25.30;44.00;;;;;;5014923;28;20531;-48
2022/07/29 03:15:28;;;;;;;1.60;1.50;;;25.30;43.90;;;;;;5012949;28;20972;-49
2022/07/29 03:17:57;;;;;;;1.60;0.90;;;25.20;44.00;;;;;;5012583;28;20473;-46
2022/07/29 03:20:25;;;;;;;1.20;1.10;;;25.20;44.10;;;;;;5007442;28;20560;-47
2022/07/29 03:22:54;;;;;;;1.70;1.23;;;25.20;44.10;;;;;;5008856;28;20497;-48
2022/07/29 03:25:22;;;;;;;1.80;1.20;;;25.20;44.10;;;;;;5019529;28;20452;-46
2022/07/29 03:27:50;;;;;;;1.27;1.00;;;25.20;44.20;;;;;;5019361;28;20556;-47
2022/07/29 03:30:18;;;;;;;1.37;1.27;;;25.20;44.10;;;;;;5005634;28;20996;-48
2022/07/29 03:32:51;;;;;;;1.50;1.10;;;25.20;44.20;;;;;;5006618;28;20448;-48
2022/07/29 03:35:20;;;;;;;1.87;1.23;;;25.20;44.20;;;;;;5002068;28;20477;-47
2022/07/29 03:37:48;;;;;;;2.47;1.10;;;25.20;44.20;;;;;;5014579;28;20488;-47
2022/07/29 03:40:23;;;;;;;1.43;1.10;;;25.20;44.30;;;;;;5023963;28;20906;-47
2022/07/29 03:42:54;;;;;;;1.33;1.23;;;25.20;44.30;;;;;;5014162;28;20865;-50
2022/07/29 03:45:23;;;;;;;1.73;1.00;;;25.20;44.20;;;;;;4999679;28;20547;-47
2022/07/29 03:47:56;;;;;;;1.57;1.00;;;25.20;44.30;;;;;;5012007;28;20890;-49
2022/07/29 03:50:29;;;;;;;1.00;0.90;;;25.20;44.30;;;;;;5006483;28;20471;-48
2022/07/29 03:52:57;;;;;;;0.93;0.87;;;25.20;44.30;;;;;;5015660;28;20439;-51
2022/07/29 03:55:27;;;;;;;1.00;0.90;;;25.20;44.30;;;;;;5024801;28;20494;-48
2022/07/29 03:57:57;;;;;;;1.50;1.40;;;25.10;44.10;;;;;;5028676;28;21058;-49
2022/07/29 04:00:27;;;;;;;1.30;1.20;;;25.10;44.20;;;;;;5015225;28;20972;-49
2022/07/29 04:02:57;;;;;;;1.10;1.00;;;25.20;44.30;;;;;;5017468;28;20532;-50
2022/07/29 04:05:25;;;;;;;2.13;0.90;;;25.20;44.40;;;;;;5019125;28;20473;-48
2022/07/29 04:07:53;;;;;;;2.00;1.00;;;25.20;44.30;;;;;;5018971;28;20461;-47
2022/07/29 04:10:22;;;;;;;1.20;0.90;;;25.20;44.40;;;;;;5008870;28;20555;-48
2022/07/29 04:12:59;;;;;;;2.10;1.20;;;25.10;44.30;;;;;;5024000;28;20799;-47
2022/07/29 04:15:28;;;;;;;1.30;0.90;;;25.10;44.30;;;;;;5006662;28;20476;-48
2022/07/29 04:17:59;;;;;;;1.00;1.00;;;25.10;44.30;;;;;;5012832;28;20522;-48
2022/07/29 04:20:27;;;;;;;1.10;1.00;;;25.10;44.40;;;;;;5011373;28;20473;-51
2022/07/29 04:22:55;;;;;;;1.20;1.00;;;25.10;44.40;;;;;;5017790;28;20472;-51
2022/07/29 04:25:23;;;;;;;1.00;0.90;;;25.10;44.30;;;;;;5017783;28;20491;-47
2022/07/29 04:28:03;;;;;;;0.90;0.70;;;25.10;44.40;;;;;;5025974;28;21026;-48
2022/07/29 04:30:33;;;;;;;1.33;0.80;;;25.10;44.40;;;;;;5011290;28;20468;-50
2022/07/29 04:33:04;;;;;;;2.13;1.20;;;25.10;44.50;;;;;;5023905;28;20436;-49
2022/07/29 04:35:35;;;;;;;1.20;0.97;;;25.10;44.30;;;;;;5013960;28;20472;-49
2022/07/29 04:38:06;;;;;;;2.93;1.30;;;25.10;44.40;;;;;;5012175;28;20464;-48
2022/07/29 04:40:42;;;;;;;1.20;0.83;;;25.10;44.50;;;;;;5002917;28;20439;-49
2022/07/29 04:43:10;;;;;;;1.53;1.43;;;25.10;44.50;;;;;;5028449;28;20531;-47
2022/07/29 04:45:41;;;;;;;1.30;1.00;;;25.10;44.50;;;;;;5022980;28;20440;-48
2022/07/29 04:48:10;;;;;;;1.20;1.10;;;25.10;44.50;;;;;;5008959;28;20569;-48
2022/07/29 04:50:39;;;;;;;1.30;1.03;;;25.10;44.60;;;;;;5016476;28;20563;-50
2022/07/29 04:53:07;;;;;;;1.70;1.00;;;25.10;44.50;;;;;;5012352;28;20825;-48
2022/07/29 04:55:36;;;;;;;1.10;1.00;;;25.10;44.60;;;;;;5011146;28;20503;-46
2022/07/29 04:58:07;;;;;;;1.23;1.07;;;25.10;44.60;;;;;;5007041;28;20468;-46
2022/07/29 05:00:35;;;;;;;1.10;1.00;;;25.10;44.80;;;;;;5013317;28;20532;-48
2022/07/29 05:03:03;;;;;;;1.00;0.90;;;25.00;44.50;;;;;;5011821;28;20472;-47
2022/07/29 05:05:32;;;;;;;1.23;1.00;;;25.10;44.60;;;;;;5035865;22;21069;-49
2022/07/29 05:08:00;;;;;;;1.03;0.93;;;25.00;44.60;;;;;;5001022;28;21040;-51
2022/07/29 05:10:28;;;;;;;1.63;1.10;;;25.10;44.60;;;;;;4995312;28;20471;-51
2022/07/29 05:12:57;;;;;;;1.40;1.03;;;25.10;44.60;;;;;;4999737;28;20437;-49
2022/07/29 05:15:25;;;;;;;1.07;0.97;;;25.00;44.60;;;;;;4981482;28;21097;-48
2022/07/29 05:17:53;;;;;;;0.80;0.80;;;25.00;44.50;;;;;;4987834;28;20540;-48
2022/07/29 05:20:26;;;;;;;1.83;1.20;;;25.00;44.60;;;;;;4979458;28;20470;-48
2022/07/29 05:22:55;;;;;;;2.10;1.00;;;25.00;44.70;;;;;;5000533;28;20445;-48
2022/07/29 05:25:23;;;;;;;1.47;1.13;;;25.00;44.60;;;;;;4983149;28;20957;-48
2022/07/29 05:28:10;;;;;;;2.60;1.20;;;25.00;44.70;;;;;;4989157;28;20470;-47
2022/07/29 05:30:39;;;;;;;2.20;1.00;;;25.00;44.60;;;;;;4985353;28;20511;-49
2022/07/29 05:33:07;;;;;;;1.10;1.00;;;25.00;44.70;;;;;;5000134;28;20442;-48
2022/07/29 05:35:55;;;;;;;1.60;1.00;;;25.00;44.70;;;;;;4993592;28;20810;-48
2022/07/29 05:38:30;;;;;;;1.47;1.13;;;25.00;44.70;;;;;;4986953;28;20463;-48
2022/07/29 05:40:59;;;;;;;1.40;0.90;;;25.00;44.80;;;;;;4996419;28;20524;-48
2022/07/29 05:43:28;;;;;;;1.50;1.10;;;25.00;44.80;;;;;;4994695;28;20469;-48
2022/07/29 05:45:56;;;;;;;1.30;1.10;;;25.00;44.80;;;;;;4986922;28;20456;-48
2022/07/29 05:48:25;;;;;;;1.97;1.20;;;25.00;45.00;;;;;;4976386;28;20549;-47
2022/07/29 05:50:53;;;;;;;2.13;1.23;;;25.00;45.00;;;;;;4993715;28;20544;-47
2022/07/29 05:53:22;;;;;;;1.67;1.20;;;24.90;45.10;;;;;;4985519;28;20473;-50
2022/07/29 05:55:52;;;;;;;2.43;1.47;;;25.00;45.10;;;;;;4972856;28;20567;-48
2022/07/29 05:58:20;;;;;;;1.53;1.07;;;24.90;45.10;;;;;;4989312;28;20469;-48
2022/07/29 06:00:48;;;;;;;1.73;1.27;;;25.00;45.20;;;;;;4980427;28;20442;-48
2022/07/29 06:03:17;;;;;;;2.70;1.20;;;25.00;45.30;;;;;;4988523;28;20532;-48
2022/07/29 06:05:45;;;;;;;0.77;0.77;;;24.90;45.30;;;;;;4993524;28;20508;-48
2022/07/29 06:08:13;;;;;;;1.13;1.00;;;24.90;45.20;;;;;;4981651;28;21001;-50
2022/07/29 06:10:41;;;;;;;2.20;0.90;;;24.90;45.30;;;;;;4982647;28;20458;-49
2022/07/29 06:13:12;;;;;;;1.13;1.00;;;24.90;45.40;;;;;;4983334;28;20469;-48
2022/07/29 06:15:40;;;;;;;1.27;1.00;;;24.90;45.30;;;;;;4992701;28;20445;-48
2022/07/29 06:18:09;;;;;;;1.30;1.00;;;24.90;45.30;;;;;;5006808;28;20912;-48
2022/07/29 06:20:38;;;;;;;1.00;0.90;;;24.90;45.40;;;;;;4985603;28;20853;-48
2022/07/29 06:23:06;;;;;;;2.37;1.40;;;24.90;45.50;;;;;;5004068;28;20508;-49
2022/07/29 06:25:36;;;;;;;1.23;1.13;;;24.90;45.50;;;;;;5005060;28;20429;-48
2022/07/29 06:28:05;;;;;;;1.20;1.10;;;24.90;45.50;;;;;;5005258;28;20884;-48
2022/07/29 06:30:34;;;;;;;2.07;1.03;;;24.90;45.50;;;;;;5007945;28;20980;-48
2022/07/29 06:33:03;;;;;;;2.40;1.30;;;24.90;45.50;;;;;;4992577;28;20825;-48
2022/07/29 06:35:33;;;;;;;3.80;1.23;;;24.90;45.50;;;;;;5001367;28;20549;-48
2022/07/29 06:38:09;;;;;;;1.10;1.00;;;24.90;45.60;;;;;;5000896;28;20456;-48
2022/07/29 06:41:04;;;;;;;1.10;1.00;;;24.90;45.60;;;;;;4997422;28;20442;-49
2022/07/29 06:43:37;;;;;;;2.07;1.30;;;24.90;45.60;;;;;;5007503;28;20469;-48
2022/07/29 06:46:21;;;;;;;1.20;0.83;;;24.90;45.60;;;;;;4982871;28;20442;-49
2022/07/29 06:48:50;;;;;;;1.43;1.20;;;24.90;45.80;;;;;;4991318;28;20531;-47
2022/07/29 06:51:19;;;;;;;1.53;1.13;;;24.90;45.80;;;;;;5003562;28;20483;-48
2022/07/29 06:53:51;;;;;;;1.17;1.00;;;24.90;45.90;;;;;;4997805;28;20511;-51
2022/07/29 06:56:30;;;;;;;2.80;1.13;;;24.80;45.90;;;;;;4982742;28;20497;-48
2022/07/29 06:58:59;;;;;;;1.30;0.90;;;24.80;45.90;;;;;;4983897;28;20462;-48
2022/07/29 07:01:30;;;;;;;3.60;1.00;;;24.80;45.90;;;;;;5005459;28;20797;-50
2022/07/29 07:03:58;;;;;;;1.90;1.20;;;24.80;46.00;;;;;;4989234;28;20489;-49
2022/07/29 07:06:27;;;;;;;1.63;1.20;;;24.80;46.10;;;;;;4978896;28;20450;-48
2022/07/29 07:08:56;;;;;;;1.23;1.00;;;24.80;46.10;;;;;;5009956;28;20491;-48
2022/07/29 07:11:24;;;;;;;1.00;0.90;;;24.80;46.20;;;;;;4994802;28;20479;-47
2022/07/29 07:13:52;;;;;;;1.40;1.30;;;24.80;46.20;;;;;;5005018;28;20547;-46
2022/07/29 07:16:20;;;;;;;1.37;1.27;;;24.80;46.40;;;;;;4993803;28;20437;-47
2022/07/29 07:18:50;;;;;;;1.67;1.30;;;24.80;46.40;;;;;;4995280;28;20543;-50
2022/07/29 07:21:19;;;;;;;1.40;1.00;;;24.80;46.40;;;;;;4980446;28;21003;-49
2022/07/29 07:23:47;;;;;;;2.00;1.60;;;24.80;46.40;;;;;;4969173;28;20915;-49
2022/07/29 07:26:15;;;;;;;1.90;1.30;;;24.70;46.50;;;;;;4994497;28;20465;-48
2022/07/29 07:28:44;;;;;;;2.00;1.20;;;24.70;46.40;;;;;;4979194;28;20509;-48
2022/07/29 07:31:12;;;;;;;1.33;1.10;;;24.70;46.40;;;;;;4984824;28;20486;-48
2022/07/29 07:33:41;;;;;;;2.90;1.20;;;24.70;46.40;;;;;;5011465;28;20556;-49
2022/07/29 07:36:10;;;;;;;1.23;1.13;;;24.70;46.40;;;;;;4985157;28;20494;-51
2022/07/29 07:38:39;;;;;;;1.67;1.50;;;24.70;46.40;;;;;;4998072;28;20471;-48
2022/07/29 07:41:07;;;;;;;1.30;1.20;;;24.70;46.40;;;;;;5010674;28;20439;-48
2022/07/29 07:43:36;;;;;;;2.13;1.40;;;24.70;46.40;;;;;;4996316;28;20489;-47
2022/07/29 07:46:05;;;;;;;6.93;1.00;;;24.70;46.50;;;;;;4998177;28;20425;-48
2022/07/29 07:48:34;;;;;;;3.80;1.90;;;24.70;46.40;;;;;;4995628;28;20544;-48
2022/07/29 07:51:03;;;;;;;2.57;1.50;;;24.70;46.90;;;;;;4973307;28;20550;-48
2022/07/29 07:53:33;;;;;;;2.30;1.80;;;24.70;47.00;;;;;;4998333;28;20529;-56
2022/07/29 07:56:02;;;;;;;2.77;1.40;;;24.70;47.00;;;;;;4982881;28;20469;-51
2022/07/29 07:58:40;;;;;;;3.73;1.60;;;24.70;47.10;;;;;;4998510;28;20482;-48
2022/07/29 08:01:08;;;;;;;4.47;1.70;;;24.60;47.00;;;;;;5000637;28;20428;-49
2022/07/29 08:03:36;;;;;;;8.03;1.70;;;24.70;47.00;;;;;;4990579;28;20483;-48
2022/07/29 08:06:05;;;;;;;3.33;2.00;;;24.70;47.10;;;;;;4997856;28;20452;-48
2022/07/29 08:08:34;;;;;;;3.80;1.60;;;24.70;47.00;;;;;;4996087;28;20879;-48
2022/07/29 08:11:03;;;;;;;2.07;1.60;;;24.70;47.00;;;;;;4994140;28;20541;-48
2022/07/29 08:13:38;;;;;;;1.40;1.30;;;24.70;47.20;;;;;;4988563;28;20842;-52
2022/07/29 08:16:16;;;;;;;5.53;1.50;;;24.70;47.00;;;;;;4994315;28;21002;-48
2022/07/29 08:18:46;;;;;;;2.87;1.60;;;24.70;47.00;;;;;;4979002;28;20537;-48
2022/07/29 08:21:15;;;;;;;1.37;1.20;;;24.70;47.00;;;;;;4983966;28;20472;-47
2022/07/29 08:23:48;;;;;;;2.20;1.67;;;24.70;47.00;;;;;;4998309;28;20465;-48
2022/07/29 08:26:28;;;;;;;1.87;1.30;;;24.70;47.00;;;;;;5002076;28;20449;-49
2022/07/29 08:28:57;;;;;;;1.17;1.07;;;24.70;47.00;;;;;;4999397;28;20523;-48
2022/07/29 08:31:25;;;;;;;2.07;1.50;;;24.70;47.00;;;;;;4998274;28;20462;-49
2022/07/29 08:33:55;;;;;;;1.40;1.30;;;24.70;47.30;;;;;;4993892;28;20461;-48
2022/07/29 08:36:25;;;;;;;2.20;1.80;;;24.70;47.30;;;;;;4976676;28;20465;-48
2022/07/29 08:38:55;;;;;;;2.30;1.60;;;24.60;47.20;;;;;;5007886;28;20764;-48
2022/07/29 08:41:24;;;;;;;1.57;1.43;;;24.70;47.30;;;;;;4976823;28;20476;-48
2022/07/29 08:43:53;;;;;;;2.30;1.70;;;24.70;47.20;;;;;;4987929;28;20553;-51
2022/07/29 08:46:23;;;;;;;1.67;1.57;;;24.70;47.20;;;;;;4979555;28;20939;-46
2022/07/29 08:48:51;;;;;;;2.10;1.50;;;24.60;47.20;;;;;;4982395;28;20474;-48
2022/07/29 08:51:21;;;;;;;4.00;1.93;;;24.60;47.20;;;;;;4986514;28;20447;-48
2022/07/29 08:53:50;;;;;;;3.50;1.77;;;24.60;47.10;;;;;;4973754;28;20466;-47
2022/07/29 08:56:22;;;;;;;3.37;2.30;;;24.60;47.10;;;;;;4983277;28;20469;-49
2022/07/29 08:58:50;;;;;;;2.90;2.23;;;24.60;47.20;;;;;;4994741;28;20539;-47
2022/07/29 09:01:24;;;;;;;7.07;3.30;;;24.50;47.80;;;;;;4984037;28;20545;-46
2022/07/29 09:04:12;;;;;;;6.57;3.50;;;24.50;49.00;;;;;;4987641;28;20552;-48
2022/07/29 09:06:46;;;;;;;4.03;2.70;;;24.40;49.70;;;;;;4977695;28;20456;-48
2022/07/29 09:09:15;;;;;;;4.63;2.50;;;24.30;50.40;;;;;;4982019;28;20484;-48
2022/07/29 09:11:45;;;;;;;4.77;3.10;;;24.20;50.00;;;;;;5001582;28;20469;-47
2022/07/29 09:14:14;;;;;;;3.53;2.50;;;24.10;50.50;;;;;;5004744;28;20900;-48
2022/07/29 09:16:48;;;;;;;6.43;2.30;;;24.20;50.40;;;;;;5006164;28;20456;-48
2022/07/29 09:19:23;;;;;;;3.50;2.30;;;24.20;50.00;;;;;;4981038;28;20890;-48
2022/07/29 09:22:01;;;;;;;3.83;2.00;;;24.30;49.80;;;;;;4994157;28;20441;-48
2022/07/29 09:24:42;;;;;;;4.47;2.20;;;24.30;49.50;;;;;;4991014;28;20492;-47
2022/07/29 09:27:21;;;;;;;2.87;1.90;;;24.30;49.40;;;;;;4992602;28;20466;-48
2022/07/29 09:30:01;;;;;;;3.50;2.50;;;24.40;49.10;;;;;;4977299;28;20474;-47
2022/07/29 09:32:29;;;;;;;2.97;2.10;;;24.40;48.80;;;;;;4992162;28;20468;-50
2022/07/29 09:35:21;;;;;;;3.93;2.30;;;24.40;48.70;;;;;;4984555;28;20507;-49
2022/07/29 09:37:50;;;;;;;2.90;1.90;;;24.40;48.60;;;;;;5006092;28;20499;-50
2022/07/29 09:40:20;;;;;;;2.10;1.90;;;24.40;48.60;;;;;;4974767;28;20493;-47
2022/07/29 09:42:51;;;;;;;3.83;2.40;;;24.40;48.50;;;;;;4994508;28;20542;-48
2022/07/29 09:45:29;;;;;;;2.40;2.20;;;24.40;48.40;;;;;;4987871;28;20663;-51
2022/07/29 09:48:00;;;;;;;2.40;2.20;;;24.50;48.50;;;;;;4999095;28;20948;-49
2022/07/29 09:50:39;;;;;;;4.40;2.17;;;24.50;48.60;;;;;;4987448;28;20544;-48
2022/07/29 09:53:09;;;;;;;2.13;1.90;;;24.50;48.40;;;;;;4975667;28;20509;-48
2022/07/29 09:56:05;;;;;;;2.13;1.80;;;24.50;48.20;;;;;;4997927;28;20432;-48
2022/07/29 09:58:35;;;;;;;2.50;2.30;;;24.50;48.40;;;;;;4976972;28;20835;-49
2022/07/29 10:01:04;;;;;;;3.20;1.67;;;24.50;48.30;;;;;;4993153;28;20450;-50
2022/07/29 10:03:33;;;;;;;2.73;1.53;;;24.50;48.20;;;;;;4996809;28;20464;-48
2022/07/29 10:06:09;;;;;;;1.90;1.70;;;24.50;48.10;;;;;;4987072;28;20485;-47
2022/07/29 10:08:38;;;;;;;3.60;2.27;;;24.50;48.20;;;;;;4973341;28;20519;-50
2022/07/29 10:11:12;;;;;;;4.53;2.40;;;24.50;48.50;;;;;;4996890;28;20543;-47
2022/07/29 10:13:43;;;;;;;2.63;2.40;;;24.50;48.50;;;;;;4984600;28;20914;-48
2022/07/29 10:16:12;;;;;;;4.50;3.00;;;24.40;48.90;;;;;;4985626;28;20853;-47
2022/07/29 10:18:43;;;;;;;2.27;2.03;;;24.40;49.00;;;;;;4990333;28;20512;-47
2022/07/29 10:21:12;;;;;;;4.47;2.53;;;24.40;49.30;;;;;;4986325;28;21175;-48
2022/07/29 10:24:00;;;;;;;2.13;1.93;;;24.40;49.10;;;;;;4999770;28;20847;-48
2022/07/29 10:26:30;;;;;;;2.10;1.90;;;24.40;48.90;;;;;;4993597;28;20445;-48
2022/07/29 10:28:59;;;;;;;3.33;2.20;;;24.50;48.80;;;;;;4985104;28;20570;-48
2022/07/29 10:31:37;;;;;;;3.00;2.07;;;24.50;48.70;;;;;;4994232;28;20472;-48
2022/07/29 10:34:14;;;;;;;2.23;1.63;;;24.40;48.30;;;;;;4990064;28;21084;-50
2022/07/29 10:36:55;;;;;;;2.57;2.37;;;24.50;48.30;;;;;;4979224;28;20482;-47
2022/07/29 10:39:41;;;;;;;2.80;2.00;;;24.50;48.30;;;;;;4960999;28;20475;-48
2022/07/29 10:42:21;;;;;;;4.27;1.90;;;24.50;48.30;;;;;;5009288;28;20902;-47
2022/07/29 10:45:06;;;;;;;3.33;2.40;;;24.50;48.30;;;;;;4999585;28;20532;-45
2022/07/29 10:48:08;;;;;;;;;;;;;;;;;;;;;
2022/07/29 10:50:58;;;;;;;2.83;2.30;;;24.50;48.70;;;;;;4966882;28;20474;-47
2022/07/29 10:53:50;;;;;;;2.20;1.90;;;24.50;48.40;;;;;;4982534;28;20463;-48
2022/07/29 10:56:26;;;;;;;2.57;2.37;;;24.60;48.30;;;;;;4983665;28;20470;-48
2022/07/29 10:59:27;;;;;;;2.67;2.43;;;24.60;48.20;;;;;;4993857;28;20882;-47
2022/07/29 11:02:51;;;;;;;3.00;2.63;;;24.70;48.20;;;;;;5005982;28;20495;-48
2022/07/29 11:05:23;;;;;;;2.50;2.30;;;24.70;48.10;;;;;;4966891;28;20507;-48
2022/07/29 11:08:23;;;;;;;4.30;2.40;;;24.70;47.90;;;;;;4988805;28;21113;-48
2022/07/29 11:11:09;;;;;;;3.53;2.50;;;24.80;47.90;;;;;;4987714;28;21015;-46
2022/07/29 11:13:51;;;;;;;2.60;2.30;;;24.80;47.80;;;;;;4992133;28;20882;-47
2022/07/29 11:16:23;;;;;;;2.50;2.30;;;24.80;47.70;;;;;;4984516;28;20879;-47
2022/07/29 11:19:21;;;;;;;2.80;2.60;;;24.80;47.70;;;;;;4988258;28;20523;-47
2022/07/29 11:21:59;;;;;;;2.30;2.10;;;24.80;47.60;;;;;;4981381;28;21021;-47
2022/07/29 11:24:30;;;;;;;2.37;2.23;;;24.80;48.90;;;;;;4991951;28;20481;-47
2022/07/29 11:27:10;;;;;;;2.67;2.47;;;24.80;47.60;;;;;;4990890;28;21069;-48
2022/07/29 11:29:49;;;;;;;5.20;2.60;;;24.80;47.50;;;;;;4980744;28;20896;-48
2022/07/29 11:32:24;;;;;;;3.40;2.50;;;24.90;47.70;;;;;;4990839;28;20517;-47
2022/07/29 11:35:15;;;;;;;2.83;2.13;;;24.90;47.50;;;;;;4988661;28;20496;-47
2022/07/29 11:37:48;;;;;;;3.17;2.53;;;24.90;47.50;;;;;;4985516;28;20545;-47
2022/07/29 11:40:25;;;;;;;3.37;3.07;;;24.90;47.50;;;;;;4987660;28;20832;-47
2022/07/29 11:42:53;;;;;;;4.03;2.50;;;24.90;47.50;;;;;;4989444;28;20945;-47
2022/07/29 11:45:31;;;;;;;3.20;2.90;;;24.90;47.50;;;;;;4984581;28;20478;-48
2022/07/29 11:48:19;;;;;;;2.60;2.07;;;24.90;47.50;;;;;;4985348;28;20470;-48
2022/07/29 11:50:57;;;;;;;3.07;2.50;;;24.90;47.50;;;;;;4984105;28;20608;-46
2022/07/29 11:53:27;;;;;;;6.00;3.53;;;24.90;47.50;;;;;;4980851;28;20457;-47
2022/07/29 11:56:01;;;;;;;8.37;3.87;;;24.90;47.30;;;;;;4989094;28;20967;-47
2022/07/29 11:58:32;;;;;;;7.40;3.70;;;24.90;47.00;;;;;;4983446;28;20443;-46
2022/07/29 12:01:00;;;;;;;5.30;3.10;;;24.90;47.30;;;;;;4987894;28;20194;-47
2022/07/29 12:03:32;;;;;;;6.17;2.70;;;24.90;47.30;;;;;;4986069;28;20837;-46
2022/07/29 12:06:11;;;;;;;5.60;2.70;;;24.90;47.30;;;;;;4981616;28;20457;-47
2022/07/29 12:09:01;;;;;;;3.77;2.87;;;24.80;47.40;;;;;;4990192;28;20472;-47
2022/07/29 12:11:32;;;;;;;7.97;2.87;;;24.80;48.40;;;;;;4992699;28;20794;-46
2022/07/29 12:14:02;;;;;;;3.00;2.70;;;24.80;47.40;;;;;;4988121;28;20478;-47
2022/07/29 12:16:36;;;;;;;2.67;2.40;;;24.80;47.50;;;;;;4990365;28;20449;-47
2022/07/29 12:19:05;;;;;;;2.73;2.53;;;24.80;47.60;;;;;;4991855;28;20566;-47
2022/07/29 12:21:45;;;;;;;2.83;2.50;;;24.70;47.40;;;;;;4981826;28;20950;-45
2022/07/29 12:24:25;;;;;;;3.40;2.50;;;24.70;47.50;;;;;;4991305;28;20544;-46
2022/07/29 12:26:55;;;;;;;3.50;2.63;;;24.70;47.60;;;;;;4990449;28;20478;-47
2022/07/29 12:29:24;;;;;;;3.30;2.83;;;24.70;47.70;;;;;;4984996;28;20572;-45
2022/07/29 12:32:03;;;;;;;4.93;2.80;;;24.70;47.70;;;;;;4989441;28;20452;-45
2022/07/29 12:34:33;;;;;;;3.30;2.50;;;24.70;47.80;;;;;;4990977;28;20569;-47
2022/07/29 12:37:01;;;;;;;3.33;2.80;;;24.70;47.70;;;;;;4982703;28;20552;-47
2022/07/29 12:39:31;;;;;;;3.50;2.40;;;24.70;47.70;;;;;;4991021;28;20553;-46
2022/07/29 12:41:59;;;;;;;3.33;3.03;;;24.70;47.70;;;;;;4984363;28;20474;-47
2022/07/29 12:44:46;;;;;;;2.63;2.30;;;24.70;47.70;;;;;;4983652;28;20846;-47
2022/07/29 12:47:14;;;;;;;3.40;2.70;;;24.70;47.70;;;;;;4987051;28;20973;-46
2022/07/29 12:49:42;;;;;;;3.00;2.63;;;24.70;47.80;;;;;;4985056;28;21384;-46
2022/07/29 12:52:32;;;;;;;2.80;2.00;;;24.70;47.70;;;;;;4984213;28;20552;-49
2022/07/29 12:55:02;;;;;;;3.60;2.73;;;24.70;47.70;;;;;;4979675;28;20478;-47
2022/07/29 12:57:32;;;;;;;2.53;2.33;;;24.70;47.70;;;;;;4985942;28;20553;-45
2022/07/29 13:00:10;;;;;;;3.47;2.40;;;24.70;47.70;;;;;;4982556;28;20473;-47
2022/07/29 13:02:41;;;;;;;2.37;2.00;;;24.70;47.80;;;;;;4987270;28;20491;-47
2022/07/29 13:05:12;;;;;;;3.13;1.97;;;24.70;47.80;;;;;;4984472;28;20849;-46
2022/07/29 13:07:40;;;;;;;4.70;2.20;;;24.70;47.80;;;;;;4984337;28;20908;-47
2022/07/29 13:10:24;;;;;;;2.33;1.93;;;24.60;47.70;;;;;;4987582;28;20496;-47
2022/07/29 13:13:03;;;;;;;2.63;2.17;;;24.70;47.80;;;;;;4991698;28;20469;-46
2022/07/29 13:15:31;;;;;;;3.50;2.47;;;24.70;47.80;;;;;;4987120;28;20480;-47
2022/07/29 13:18:00;;;;;;;1.73;1.63;;;24.60;47.70;;;;;;4989232;28;20472;-47